Time;durP1;ratioP1;P1;durP2;ratioP2;P2;SDS_P1;SDS_P2;PMS_P1;PMS_P2;Temp;Humidity;BMP_temperature;BMP_pressure;BME280_temperature;BME280_humidity;BME280_pressure;Samples;Min_cycle;Max_cycle;Signal;HPM_P1;HPM_P2
2023/07/29 00:32:27;;;;;;;10.48;5.68;;;;;;;17.41;100.00;100566.16;4810365;29;20469;-96
2023/07/29 00:34:57;;;;;;;9.80;5.10;;;;;;;17.38;100.00;100554.88;4794351;29;20050;-96
2023/07/29 00:37:53;;;;;;;10.82;6.20;;;;;;;17.27;100.00;100537.56;4779899;29;20051;-96
2023/07/29 02:34:02;;;;;;;6.70;2.83;;;;;;;16.44;100.00;100523.38;4808405;29;20114;-94
2023/07/29 02:36:40;;;;;;;6.43;3.37;;;;;;;16.41;100.00;100520.34;4808586;29;20485;-94
2023/07/29 02:39:13;;;;;;;5.10;3.15;;;;;;;16.38;100.00;100520.88;4791932;29;20035;-94
2023/07/29 02:41:48;;;;;;;6.30;3.35;;;;;;;16.34;100.00;100534.25;4793089;29;20049;-94
2023/07/29 02:44:26;;;;;;;5.85;3.30;;;;;;;16.31;100.00;100524.66;4793622;29;20091;-94
2023/07/29 02:47:02;;;;;;;;;;;;;;;;;;;;;
2023/07/29 02:49:56;;;;;;;5.07;3.60;;;;;;;16.25;100.00;100522.13;4811097;29;20194;-94
2023/07/29 02:52:31;;;;;;;5.35;3.53;;;;;;;16.22;100.00;100518.00;4789522;29;20103;-94
2023/07/29 02:55:04;;;;;;;6.35;3.63;;;;;;;16.19;100.00;100524.00;4792316;29;20035;-94
2023/07/29 02:57:42;;;;;;;6.72;3.83;;;;;;;16.18;100.00;100521.53;4777169;29;20051;-94
2023/07/29 03:06:02;;;;;;;6.18;3.58;;;;;;;16.09;100.00;100518.44;4807753;29;20043;-94
2023/07/29 03:08:36;;;;;;;6.95;3.92;;;;;;;16.08;100.00;100516.81;4791639;29;20491;-94
2023/07/29 03:11:07;;;;;;;8.10;4.20;;;;;;;16.04;100.00;100518.41;4792029;29;20121;-95
2023/07/29 03:13:45;;;;;;;;;;;;;;;;;;;;;
2023/07/29 03:16:22;;;;;;;6.70;4.03;;;;;;;15.96;100.00;100512.31;4793283;29;20395;-95
2023/07/29 03:19:02;;;;;;;6.13;4.40;;;;;;;15.95;100.00;100523.53;4762507;29;20488;-95
2023/07/29 03:21:46;;;;;;;;;;;;;;;;;;;;;
2023/07/29 03:24:16;;;;;;;5.82;4.30;;;;;;;15.89;100.00;100530.03;4793504;29;20034;-96
2023/07/29 03:27:02;;;;;;;8.35;4.20;;;;;;;15.85;100.00;100535.19;4792343;29;20031;-95
2023/07/29 03:29:33;;;;;;;7.50;4.03;;;;;;;15.84;100.00;100535.44;4791476;29;20042;-95
2023/07/29 03:32:01;;;;;;;9.32;4.55;;;;;;;15.80;100.00;100532.41;4791173;29;20078;-95
2023/07/29 03:34:29;;;;;;;6.78;4.35;;;;;;;15.78;100.00;100527.19;4776500;29;20137;-95
2023/07/29 03:36:58;;;;;;;8.02;4.35;;;;;;;15.75;100.00;100532.31;4791948;29;20583;-94
2023/07/29 03:39:33;;;;;;;7.00;4.10;;;;;;;15.73;100.00;100532.56;4791124;29;20504;-95
2023/07/29 03:42:08;;;;;;;7.77;4.03;;;;;;;15.69;100.00;100527.88;4777754;29;20046;-95
2023/07/29 03:44:39;;;;;;;6.32;3.90;;;;;;;15.65;100.00;100529.47;4791595;29;20515;-96
2023/07/29 03:47:08;;;;;;;5.70;4.15;;;;;;;15.60;100.00;100527.50;4776479;29;20050;-96
2023/07/29 03:49:36;;;;;;;8.05;3.72;;;;;;;15.57;100.00;100542.50;4791118;29;20088;-96
2023/07/29 03:52:15;;;;;;;;;;;;;;;;;;;;;
2023/07/29 03:54:50;;;;;;;6.40;4.10;;;;;;;15.52;100.00;100511.56;4808641;29;20037;-96
2023/07/29 03:57:28;;;;;;;;;;;;;;;;;;;;;
2023/07/29 04:00:06;;;;;;;5.80;3.65;;;;;;;15.48;100.00;100492.09;4811074;29;20033;-95
2023/07/29 04:02:38;;;;;;;5.13;3.95;;;;;;;15.45;100.00;100478.94;4792169;29;20520;-95
2023/07/29 04:05:14;;;;;;;5.78;4.07;;;;;;;15.43;100.00;100490.16;4791894;30;20390;-95
2023/07/29 04:07:42;;;;;;;6.37;4.00;;;;;;;15.42;100.00;100493.13;4762970;30;20076;-95
2023/07/29 04:10:11;;;;;;;5.38;3.63;;;;;;;15.43;100.00;100481.13;4791880;30;20447;-96
2023/07/29 04:12:42;;;;;;;7.25;3.95;;;;;;;15.41;100.00;100475.06;4791672;30;20062;-96
2023/07/29 04:15:15;;;;;;;7.63;3.67;;;;;;;15.37;100.00;100480.25;4792152;30;20058;-95
2023/07/29 04:17:43;;;;;;;7.65;3.83;;;;;;;15.37;100.00;100487.63;4791374;30;20559;-96
2023/07/29 04:20:15;;;;;;;6.50;4.33;;;;;;;15.37;100.00;100506.75;4791323;30;20039;-96
2023/07/29 04:22:41;;;;;;;5.65;3.95;;;;;;;15.35;100.00;100525.31;4763298;30;20127;-95
2023/07/29 04:25:07;;;;;;;8.38;4.30;;;;;;;15.39;100.00;100534.66;4791755;30;20059;-95
2023/07/29 04:27:43;;;;;;;8.97;3.80;;;;;;;15.39;100.00;100538.19;4791656;30;20081;-96
2023/07/29 04:30:09;;;;;;;5.25;4.05;;;;;;;15.44;100.00;100540.16;4778266;30;20043;-96
2023/07/29 04:32:42;;;;;;;6.55;3.83;;;;;;;15.48;100.00;100541.31;4776571;30;20134;-96
2023/07/29 04:35:32;;;;;;;5.85;3.75;;;;;;;15.55;100.00;100535.66;4791461;30;20594;-95
2023/07/29 04:38:11;;;;;;;5.63;3.28;;;;;;;15.61;100.00;100531.91;4794930;29;20042;-96
2023/07/29 04:40:47;;;;;;;6.57;3.17;;;;;;;15.65;100.00;100538.50;4763068;30;20043;-95
2023/07/29 04:43:15;;;;;;;4.90;3.22;;;;;;;15.69;100.00;100544.28;4777479;30;20122;-94
2023/07/29 04:45:49;;;;;;;4.18;2.95;;;;;;;15.73;100.00;100557.19;4790818;30;20041;-95
2023/07/29 04:48:19;;;;;;;4.72;2.70;;;;;;;15.77;100.00;100547.38;4776229;30;20410;-94
2023/07/29 04:50:59;;;;;;;4.90;3.03;;;;;;;15.76;100.00;100536.69;4791119;30;20039;-95
2023/07/29 04:53:28;;;;;;;6.13;2.60;;;;;;;15.77;100.00;100546.56;4762599;30;20540;-94
2023/07/29 04:56:01;;;;;;;3.72;2.60;;;;;;;15.79;100.00;100550.69;4791227;30;20035;-95
2023/07/29 04:58:34;;;;;;;5.07;2.90;;;;;;;15.81;100.00;100549.63;4776547;30;20093;-95
2023/07/29 05:01:06;;;;;;;4.28;2.95;;;;;;;15.81;100.00;100545.00;4790455;29;20081;-95
2023/07/29 05:03:35;;;;;;;5.43;2.60;;;;;;;15.86;100.00;100553.25;4790666;30;20043;-96
2023/07/29 05:06:05;;;;;;;5.47;2.40;;;;;;;15.90;100.00;100556.28;4790151;29;20043;-95
2023/07/29 05:08:35;;;;;;;5.80;2.70;;;;;;;15.92;100.00;100563.16;4791269;30;20465;-94
2023/07/29 05:11:22;;;;;;;3.78;2.33;;;;;;;15.97;100.00;100567.84;4761667;30;20534;-94
2023/07/29 05:13:53;;;;;;;3.88;2.50;;;;;;;16.01;100.00;100565.44;4776510;30;20088;-95
2023/07/29 05:16:19;;;;;;;4.97;2.70;;;;;;;16.06;100.00;100563.59;4790829;30;20039;-94
2023/07/29 05:18:44;;;;;;;4.20;2.57;;;;;;;16.11;100.00;100573.75;4791046;30;20073;-95
2023/07/29 05:21:15;;;;;;;3.80;2.10;;;;;;;16.14;100.00;100578.69;4789960;30;20043;-95
2023/07/29 05:24:09;;;;;;;3.05;2.38;;;;;;;16.12;100.00;100564.44;4775798;30;20039;-96
2023/07/29 05:26:42;;;;;;;2.85;1.95;;;;;;;16.11;100.00;100563.63;4790791;30;20038;-95
2023/07/29 05:29:32;;;;;;;3.42;2.17;;;;;;;16.10;100.00;100563.88;4790295;30;20035;-95
2023/07/29 05:31:58;;;;;;;4.28;2.50;;;;;;;16.09;100.00;100560.31;4790675;30;20038;-95
2023/07/29 05:34:32;;;;;;;4.27;2.30;;;;;;;16.13;100.00;100564.16;4790028;30;20049;-96
2023/07/29 05:37:00;;;;;;;4.28;2.35;;;;;;;16.17;100.00;100563.69;4791602;30;20043;-95
2023/07/29 05:39:32;;;;;;;4.82;2.30;;;;;;;16.24;100.00;100564.25;4775008;30;20039;-95
2023/07/29 05:42:10;;;;;;;4.10;2.50;;;;;;;16.29;100.00;100561.59;4790384;30;20481;-96
2023/07/29 05:44:39;;;;;;;5.93;2.88;;;;;;;16.32;100.00;100558.31;4776278;30;20051;-95
2023/07/29 05:47:17;;;;;;;3.85;2.47;;;;;;;16.37;100.00;100560.28;4789664;30;20043;-95
2023/07/29 05:49:50;;;;;;;4.65;2.50;;;;;;;16.43;100.00;100567.44;4776443;30;20043;-95
2023/07/29 05:52:25;;;;;;;4.85;2.47;;;;;;;16.50;100.00;100568.03;4789669;30;20100;-95
2023/07/29 05:54:59;;;;;;;3.80;2.60;;;;;;;16.58;100.00;100564.84;4789913;30;20405;-94
2023/07/29 05:57:25;;;;;;;4.60;2.55;;;;;;;16.67;100.00;100571.47;4790082;30;20035;-95
2023/07/29 05:59:55;;;;;;;3.53;2.30;;;;;;;16.72;100.00;100562.47;4789497;30;20434;-89
2023/07/29 06:02:21;;;;;;;3.85;2.33;;;;;;;16.84;100.00;100562.25;4805270;29;20055;-89
2023/07/29 06:04:46;;;;;;;4.97;2.30;;;;;;;16.97;100.00;100564.56;4791708;29;20400;-87
2023/07/29 06:07:15;;;;;;;3.40;2.67;;;;;;;17.08;100.00;100561.88;4791569;29;20035;-88
2023/07/29 06:09:44;;;;;;;5.05;2.20;;;;;;;17.18;100.00;100567.41;4791987;29;20075;-88
2023/07/29 06:12:11;;;;;;;4.40;2.40;;;;;;;17.25;100.00;100561.72;4791922;29;20043;-86
2023/07/29 06:14:37;;;;;;;4.53;2.20;;;;;;;17.33;100.00;100564.75;4791306;29;20046;-87
2023/07/29 06:17:02;;;;;;;3.20;2.17;;;;;;;17.40;100.00;100559.03;4761500;29;20035;-89
2023/07/29 06:19:28;;;;;;;4.33;2.27;;;;;;;17.43;100.00;100558.47;4790858;29;20042;-90
2023/07/29 06:21:55;;;;;;;4.15;2.40;;;;;;;17.43;100.00;100552.19;4776466;29;20569;-89
2023/07/29 06:24:20;;;;;;;3.50;2.47;;;;;;;17.42;100.00;100550.53;4791327;29;20492;-89
2023/07/29 06:26:49;;;;;;;4.75;2.42;;;;;;;17.38;100.00;100544.75;4791513;29;20038;-88
2023/07/29 06:29:15;;;;;;;4.03;2.53;;;;;;;17.36;100.00;100558.75;4791273;29;20073;-88
2023/07/29 06:31:45;;;;;;;2.83;2.50;;;;;;;17.38;100.00;100565.84;4790871;29;20079;-87
2023/07/29 06:34:10;;;;;;;3.30;2.30;;;;;;;17.36;100.00;100563.38;4791732;29;20134;-89
2023/07/29 06:36:36;;;;;;;2.90;2.20;;;;;;;17.36;100.00;100561.50;4776049;29;20138;-89
2023/07/29 06:39:06;;;;;;;4.13;2.50;;;;;;;17.39;100.00;100562.88;4791258;29;20042;-89
2023/07/29 06:41:32;;;;;;;4.90;2.38;;;;;;;17.41;100.00;100554.38;4807005;29;20516;-88
2023/07/29 06:43:57;;;;;;;5.47;2.27;;;;;;;17.43;100.00;100561.22;4791187;29;20033;-88
2023/07/29 06:46:28;;;;;;;4.27;2.20;;;;;;;17.45;100.00;100567.28;4791215;29;20099;-88
2023/07/29 06:48:56;;;;;;;6.10;2.15;;;;;;;17.41;100.00;100562.59;4790916;29;20043;-88
2023/07/29 06:51:21;;;;;;;3.03;2.20;;;;;;;17.48;100.00;100566.75;4777067;29;20039;-88
2023/07/29 06:53:47;;;;;;;3.30;2.10;;;;;;;17.66;100.00;100572.84;4790883;29;20392;-87
2023/07/29 06:56:15;;;;;;;3.00;1.90;;;;;;;17.76;100.00;100580.25;4807309;29;20037;-88
2023/07/29 06:58:40;;;;;;;2.85;2.00;;;;;;;17.84;100.00;100580.56;4790668;29;20035;-88
2023/07/29 07:01:05;;;;;;;3.10;2.10;;;;;;;18.08;100.00;100579.28;4775548;29;20149;-88
2023/07/29 07:03:31;;;;;;;3.35;1.98;;;;;;;18.35;100.00;100584.50;4790962;29;20043;-88
2023/07/29 07:05:57;;;;;;;4.00;1.90;;;;;;;18.46;100.00;100588.91;4807349;29;20110;-88
2023/07/29 07:08:22;;;;;;;5.60;2.25;;;;;;;18.47;100.00;100585.06;4790566;29;20047;-88
2023/07/29 07:10:48;;;;;;;2.60;1.43;;;;;;;18.53;100.00;100577.66;4790615;29;20039;-89
2023/07/29 07:13:13;;;;;;;3.27;1.90;;;;;;;18.54;100.00;100585.63;4790220;29;20040;-88
2023/07/29 07:15:39;;;;;;;3.17;1.93;;;;;;;18.75;100.00;100580.94;4775356;29;20058;-88
2023/07/29 07:18:04;;;;;;;4.13;1.77;;;;;;;18.90;100.00;100588.34;4806912;29;20074;-88
2023/07/29 07:20:32;;;;;;;5.23;1.70;;;;;;;19.05;100.00;100581.19;4790042;29;20038;-88
2023/07/29 07:22:58;;;;;;;2.65;1.65;;;;;;;19.17;100.00;100600.94;4806986;29;20061;-88
2023/07/29 07:25:23;;;;;;;3.40;1.90;;;;;;;19.21;100.00;100592.97;4790849;29;20388;-88
2023/07/29 07:27:49;;;;;;;5.23;1.67;;;;;;;19.49;100.00;100596.16;4790995;29;20492;-88
2023/07/29 07:30:14;;;;;;;2.27;1.70;;;;;;;19.86;100.00;100597.69;4775115;29;20034;-88
2023/07/29 07:32:40;;;;;;;2.25;1.70;;;;;;;19.88;98.02;100599.03;4775298;29;20469;-88
2023/07/29 07:35:05;;;;;;;2.97;1.80;;;;;;;19.65;97.70;100597.75;4760397;29;20034;-88
2023/07/29 07:37:33;;;;;;;3.38;1.77;;;;;;;19.59;99.08;100604.38;4775395;29;20047;-88
2023/07/29 07:39:59;;;;;;;4.77;1.90;;;;;;;19.57;99.81;100606.59;4775046;29;20057;-88
2023/07/29 07:42:24;;;;;;;3.58;1.73;;;;;;;19.48;99.39;100598.09;4775614;29;20080;-88
2023/07/29 07:44:49;;;;;;;3.80;1.63;;;;;;;19.34;100.00;100608.88;4775787;29;20042;-88
2023/07/29 07:47:15;;;;;;;3.67;1.47;;;;;;;19.29;98.96;100611.63;4806641;29;20041;-88
2023/07/29 07:49:40;;;;;;;2.37;1.60;;;;;;;19.28;98.58;100619.06;4775188;29;20469;-88
2023/07/29 07:52:06;;;;;;;2.03;1.60;;;;;;;19.33;99.06;100617.41;4775266;29;20047;-87
2023/07/29 07:54:32;;;;;;;3.17;1.73;;;;;;;19.52;96.63;100629.44;4790006;29;20319;-88
2023/07/29 07:56:57;;;;;;;2.70;1.40;;;;;;;19.63;96.48;100614.56;4806914;29;20053;-88
2023/07/29 07:59:23;;;;;;;3.30;1.60;;;;;;;19.91;97.24;100601.22;4790120;29;20449;-93
2023/07/29 08:01:48;;;;;;;3.10;1.73;;;;;;;20.16;92.67;100608.47;4789915;29;20053;-88
2023/07/29 08:04:16;;;;;;;1.90;1.30;;;;;;;20.23;92.58;100604.63;4790326;29;20038;-89
2023/07/29 08:06:44;;;;;;;2.30;1.33;;;;;;;20.26;92.76;100602.09;4790666;29;20341;-88
2023/07/29 08:09:10;;;;;;;1.80;1.45;;;;;;;20.39;92.83;100597.03;4790054;29;20481;-88
2023/07/29 08:11:35;;;;;;;3.03;1.50;;;;;;;20.61;91.45;100602.09;4789827;29;20075;-86
2023/07/29 08:14:01;;;;;;;2.38;1.10;;;;;;;20.63;88.93;100602.63;4789959;29;20035;-87
2023/07/29 08:16:31;;;;;;;2.10;1.20;;;;;;;20.59;90.34;100612.59;4789897;29;20514;-87
2023/07/29 08:18:57;;;;;;;2.03;1.13;;;;;;;20.53;88.92;100613.75;4776260;29;20035;-88
2023/07/29 08:21:22;;;;;;;1.70;1.20;;;;;;;20.45;89.28;100609.69;4806110;29;20039;-88
2023/07/29 08:23:49;;;;;;;2.43;1.20;;;;;;;20.29;89.55;100620.00;4789521;29;20453;-89
2023/07/29 08:26:17;;;;;;;2.85;1.25;;;;;;;20.18;89.47;100612.91;4790003;29;20096;-88
2023/07/29 08:28:45;;;;;;;2.75;1.50;;;;;;;20.08;90.34;100625.63;4789834;29;20400;-88
2023/07/29 08:31:11;;;;;;;2.15;1.20;;;;;;;20.04;91.35;100619.03;4789898;29;20066;-87
2023/07/29 08:33:36;;;;;;;1.37;1.20;;;;;;;20.08;90.56;100620.13;4789461;29;20062;-88
2023/07/29 08:36:03;;;;;;;3.08;1.30;;;;;;;20.09;90.38;100620.94;4789740;29;20045;-89
2023/07/29 08:38:28;;;;;;;3.10;1.40;;;;;;;20.05;90.89;100609.69;4789446;29;20026;-88
2023/07/29 08:41:04;;;;;;;2.03;1.60;;;;;;;19.96;90.16;100609.47;4791111;29;20042;-89
2023/07/29 08:43:32;;;;;;;2.67;1.20;;;;;;;19.83;92.12;100601.81;4809433;29;20042;-88
2023/07/29 08:45:59;;;;;;;3.55;1.20;;;;;;;19.83;92.94;100606.47;4793253;29;20491;-88
2023/07/29 08:48:37;;;;;;;1.70;1.20;;;;;;;19.89;93.43;100599.88;4792761;29;20031;-88
2023/07/29 08:51:09;;;;;;;1.77;1.20;;;;;;;19.99;92.82;100605.31;4793722;29;20358;-88
2023/07/29 08:53:41;;;;;;;1.40;1.00;;;;;;;20.20;90.67;100603.25;4792619;29;20061;-88
2023/07/29 08:56:09;;;;;;;1.73;1.40;;;;;;;20.54;87.95;100594.16;4778417;29;20046;-87
2023/07/29 08:58:39;;;;;;;3.25;1.15;;;;;;;20.78;85.62;100597.00;4809471;29;20027;-89
2023/07/29 09:01:06;;;;;;;1.85;1.20;;;;;;;20.91;84.85;100598.28;4808759;29;20035;-89
2023/07/29 09:03:31;;;;;;;2.40;1.27;;;;;;;21.05;83.92;100592.06;4793224;29;20022;-90
2023/07/29 09:05:58;;;;;;;2.23;1.07;;;;;;;21.28;83.27;100599.53;4808731;29;20460;-87
2023/07/29 09:08:27;;;;;;;2.53;1.13;;;;;;;21.48;82.29;100594.88;4792718;29;20284;-87
2023/07/29 09:10:55;;;;;;;3.97;1.20;;;;;;;21.69;81.70;100599.06;4808492;29;20096;-87
2023/07/29 09:13:22;;;;;;;2.30;1.25;;;;;;;21.73;79.03;100605.63;4792532;29;20045;-87
2023/07/29 09:15:47;;;;;;;1.38;0.90;;;;;;;21.57;80.27;100606.13;4792095;29;20033;-88
2023/07/29 09:18:20;;;;;;;2.47;1.10;;;;;;;21.42;82.08;100596.91;4777386;29;20031;-88
2023/07/29 09:20:52;;;;;;;2.83;0.90;;;;;;;21.54;82.54;100596.50;4792933;29;20039;-86
2023/07/29 09:23:23;;;;;;;1.92;1.08;;;;;;;21.54;82.56;100588.22;4792531;29;20392;-88
2023/07/29 09:25:56;;;;;;;4.47;1.23;;;;;;;21.39;82.67;100586.41;4808849;29;20041;-89
2023/07/29 09:28:21;;;;;;;2.60;1.05;;;;;;;21.36;83.51;100585.09;4792358;29;20038;-88
2023/07/29 09:30:51;;;;;;;3.20;1.20;;;;;;;21.49;83.46;100588.25;4792420;29;20042;-89
2023/07/29 09:33:18;;;;;;;2.33;1.30;;;;;;;21.68;81.63;100582.78;4808132;29;20039;-89
2023/07/29 09:35:46;;;;;;;3.25;1.40;;;;;;;21.89;81.13;100580.56;4792733;29;20031;-89
2023/07/29 09:38:27;;;;;;;;;;;;;;;;;;;;;
2023/07/29 09:40:57;;;;;;;2.23;1.40;;;;;;;21.77;79.72;100591.22;4808868;29;20042;-87
2023/07/29 09:43:29;;;;;;;2.83;1.30;;;;;;;21.60;79.45;100591.72;4808318;29;20061;-88
2023/07/29 09:45:55;;;;;;;1.50;1.20;;;;;;;21.42;79.52;100587.78;4792249;29;20058;-88
2023/07/29 09:48:23;;;;;;;1.23;1.13;;;;;;;21.31;82.63;100589.84;4791894;29;20073;-89
2023/07/29 09:50:49;;;;;;;2.30;1.20;;;;;;;21.17;82.31;100592.47;4808432;29;20045;-89
2023/07/29 09:53:15;;;;;;;1.47;1.10;;;;;;;21.01;83.47;100603.69;4791290;29;20031;-87
2023/07/29 09:55:51;;;;;;;1.70;1.13;;;;;;;20.89;84.24;100603.25;4807871;29;20071;-93
2023/07/29 09:58:28;;;;;;;1.52;1.20;;;;;;;20.77;86.42;100606.41;4792299;29;20366;-93
2023/07/29 10:00:54;;;;;;;3.05;1.50;;;;;;;20.73;85.68;100588.78;4792981;29;20067;-90
2023/07/29 10:03:26;;;;;;;4.07;1.37;;;;;;;20.85;85.47;100599.44;4791226;29;20515;-90
2023/07/29 10:06:11;;;;;;;5.53;1.30;;;;;;;21.18;84.89;100599.63;4791859;29;20138;-90
2023/07/29 10:08:42;;;;;;;1.50;1.10;;;;;;;21.47;82.77;100598.78;4791594;29;20130;-89
2023/07/29 10:11:13;;;;;;;1.53;1.03;;;;;;;21.79;82.92;100584.31;4791792;29;20088;-91
2023/07/29 10:13:41;;;;;;;3.30;1.13;;;;;;;22.24;79.58;100600.50;4791361;29;20404;-90
2023/07/29 10:16:10;;;;;;;2.20;1.23;;;;;;;22.50;77.27;100580.75;4792211;29;20042;-90
2023/07/29 10:18:36;;;;;;;1.92;1.38;;;;;;;22.78;76.25;100587.19;4791200;29;20047;-89
2023/07/29 10:21:06;;;;;;;2.37;1.40;;;;;;;22.95;74.70;100595.69;4791447;29;20037;-89
2023/07/29 10:23:40;;;;;;;1.83;1.30;;;;;;;23.08;75.25;100590.50;4791310;29;20469;-90
2023/07/29 10:26:19;;;;;;;2.80;1.35;;;;;;;23.36;74.93;100579.47;4791425;29;20041;-96
2023/07/29 10:28:49;;;;;;;1.77;1.27;;;;;;;23.24;73.81;100586.34;4791703;29;20038;-91
2023/07/29 10:31:18;;;;;;;2.28;1.20;;;;;;;23.43;73.52;100575.16;4807571;29;20092;-89
2023/07/29 10:33:45;;;;;;;2.10;1.30;;;;;;;23.93;70.99;100579.09;4791180;29;20085;-90
2023/07/29 10:36:15;;;;;;;5.53;1.50;;;;;;;24.06;69.54;100582.97;4791327;29;20039;-88
2023/07/29 10:38:43;;;;;;;1.77;1.33;;;;;;;23.99;69.58;100566.75;4791015;29;20030;-87
2023/07/29 10:41:09;;;;;;;2.60;1.40;;;;;;;24.43;69.96;100567.91;4790932;29;20062;-87
2023/07/29 10:43:38;;;;;;;2.80;1.80;;;;;;;24.55;65.97;100570.09;4761626;29;20073;-88
2023/07/29 10:46:18;;;;;;;1.65;1.30;;;;;;;24.40;67.91;100563.00;4790691;29;20421;-88
2023/07/29 10:48:49;;;;;;;2.15;1.67;;;;;;;23.92;68.31;100558.88;4790812;29;20506;-88
2023/07/29 10:51:36;;;;;;;2.17;1.60;;;;;;;23.85;70.76;100546.56;4791160;29;20090;-88
2023/07/29 10:54:14;;;;;;;3.83;1.60;;;;;;;23.59;67.99;100560.97;4807403;29;20046;-88
2023/07/29 10:56:47;;;;;;;2.53;1.52;;;;;;;23.51;70.43;100558.97;4777344;29;20049;-88
2023/07/29 10:59:16;;;;;;;2.78;1.33;;;;;;;23.40;70.64;100558.34;4791265;29;20441;-88
2023/07/29 11:01:49;;;;;;;1.55;1.45;;;;;;;23.08;70.86;100558.13;4790890;29;20404;-88
2023/07/29 11:04:23;;;;;;;2.23;1.60;;;;;;;22.84;72.99;100554.72;4806201;29;20477;-88
2023/07/29 11:07:07;;;;;;;1.90;1.50;;;;;;;22.67;73.97;100567.19;4790702;29;20084;-88
2023/07/29 11:09:48;;;;;;;2.58;1.40;;;;;;;22.40;75.45;100565.97;4790695;29;20042;-88
2023/07/29 11:12:35;;;;;;;2.50;1.25;;;;;;;22.30;76.11;100573.59;4807105;29;20058;-88
2023/07/29 11:15:18;;;;;;;3.03;1.40;;;;;;;22.11;76.73;100557.03;4790505;29;20564;-86
2023/07/29 11:17:49;;;;;;;2.40;1.50;;;;;;;22.05;77.13;100572.88;4790255;29;20035;-87
2023/07/29 11:20:48;;;;;;;2.40;1.63;;;;;;;21.99;81.09;100563.84;4791325;29;20167;-95
2023/07/29 11:23:17;;;;;;;2.22;1.63;;;;;;;22.13;78.27;100572.19;4791431;29;20042;-93
2023/07/29 11:26:12;;;;;;;1.50;1.30;;;;;;;22.75;76.22;100566.50;4790843;29;20047;-94
2023/07/29 11:28:41;;;;;;;2.97;1.40;;;;;;;23.69;71.30;100571.84;4791564;29;20039;-93
2023/07/29 11:31:16;;;;;;;1.90;1.30;;;;;;;23.84;70.37;100570.66;4791292;29;20115;-93
2023/07/29 11:33:50;;;;;;;2.78;1.40;;;;;;;24.06;69.02;100556.06;4790904;29;20047;-92
2023/07/29 11:36:35;;;;;;;3.40;1.40;;;;;;;24.46;69.21;100560.91;4792226;29;20042;-92
2023/07/29 11:39:12;;;;;;;2.35;1.48;;;;;;;25.28;66.40;100555.94;4791663;29;20042;-94
2023/07/29 11:42:04;;;;;;;;;;;;;;;;;;;;;
2023/07/29 11:44:48;;;;;;;1.90;1.53;;;;;;;29.38;53.82;100563.41;4808429;29;20047;-94
2023/07/29 11:47:19;;;;;;;4.55;1.50;;;;;;;31.08;47.56;100557.03;4778935;29;20031;-95
2023/07/29 11:49:45;;;;;;;2.78;1.80;;;;;;;31.10;45.34;100551.88;4791191;29;20039;-93
2023/07/29 11:52:30;;;;;;;2.13;1.90;;;;;;;30.21;45.55;100551.91;4791385;29;20045;-94
2023/07/29 11:55:06;;;;;;;2.58;1.83;;;;;;;29.21;48.61;100541.25;4791444;29;20119;-94
2023/07/29 11:57:35;;;;;;;3.97;1.65;;;;;;;29.86;47.92;100535.72;4791197;29;20026;-94
2023/07/29 12:00:11;;;;;;;2.63;1.80;;;;;;;28.28;50.88;100534.09;4791232;29;20050;-94
2023/07/29 12:02:44;;;;;;;1.95;1.75;;;;;;;26.48;56.64;100542.81;4790513;29;20062;-94
2023/07/29 12:05:14;;;;;;;2.60;1.80;;;;;;;25.53;58.32;100564.72;4776220;29;20477;-94
2023/07/29 12:07:45;;;;;;;3.22;1.50;;;;;;;24.47;63.16;100568.91;4792093;29;20059;-93
2023/07/29 12:10:55;;;;;;;6.90;2.22;;;;;;;23.23;70.14;100572.81;4791489;29;20438;-96
2023/07/29 12:13:46;;;;;;;;;;;;;;;;;;;;;
2023/07/29 12:17:06;;;;;;;;;;;;;;;;;;;;;
2023/07/29 12:30:34;;;;;;;4.22;2.95;;;;;;;18.52;100.00;100620.78;4670378;30;20049;-95
2023/07/29 12:33:06;;;;;;;4.10;3.30;;;;;;;18.51;100.00;100621.91;4720071;30;20037;-95
2023/07/29 12:35:45;;;;;;;5.50;3.40;;;;;;;18.61;100.00;100617.50;4709565;30;20419;-94
2023/07/29 12:38:28;;;;;;;7.45;3.97;;;;;;;18.65;100.00;100616.66;4722746;30;20468;-93
2023/07/29 12:40:54;;;;;;;4.43;3.90;;;;;;;18.69;100.00;100617.75;4794442;29;20038;-93
2023/07/29 12:43:24;;;;;;;8.02;4.40;;;;;;;18.82;100.00;100621.03;4794048;29;20035;-92
2023/07/29 12:45:56;;;;;;;7.53;4.60;;;;;;;18.84;100.00;100605.94;4779528;29;20388;-93
2023/07/29 12:48:24;;;;;;;7.10;4.60;;;;;;;18.82;100.00;100618.28;4794295;29;20027;-92
2023/07/29 12:50:52;;;;;;;6.18;5.07;;;;;;;19.05;100.00;100612.25;4794784;29;20115;-92
2023/07/29 12:53:18;;;;;;;5.70;5.10;;;;;;;19.06;100.00;100629.56;4780613;29;20039;-94
2023/07/29 12:55:46;;;;;;;6.07;4.53;;;;;;;18.82;100.00;100629.28;4800850;29;20049;-94
2023/07/29 12:58:17;;;;;;;8.95;5.28;;;;;;;18.74;100.00;100627.94;4780120;29;20122;-94
2023/07/29 13:00:49;;;;;;;5.03;3.97;;;;;;;18.72;100.00;100633.69;4797444;29;20062;-93
2023/07/29 13:03:30;;;;;;;3.47;2.55;;;;;;;18.72;100.00;100627.34;4806873;29;20106;-93
2023/07/29 13:06:15;;;;;;;2.90;1.60;;;;;;;18.77;100.00;100625.44;4795293;29;20054;-92
2023/07/29 13:08:52;;;;;;;;;;;;;;;;;;;;;
2023/07/29 13:11:20;;;;;;;2.50;2.00;;;;;;;21.97;100.00;100613.03;4813070;29;20121;-93
2023/07/29 13:13:46;;;;;;;3.03;1.95;;;;;;;24.25;100.00;100621.59;4781357;29;20031;-93
2023/07/29 13:16:13;;;;;;;2.10;1.67;;;;;;;26.20;94.23;100618.25;4793718;29;20042;-94
2023/07/29 13:18:47;;;;;;;1.70;1.55;;;;;;;27.27;77.59;100613.78;4794398;29;20027;-94
2023/07/29 13:21:20;;;;;;;2.03;1.83;;;;;;;25.95;79.47;100617.06;4794003;29;20101;-94
2023/07/29 13:23:57;;;;;;;2.20;2.00;;;;;;;25.11;84.75;100628.06;4779092;29;20035;-95
2023/07/29 13:26:25;;;;;;;2.58;1.70;;;;;;;25.31;81.72;100621.97;4793946;29;20035;-94
2023/07/29 13:28:55;;;;;;;2.97;1.80;;;;;;;25.46;82.49;100626.25;4777945;29;20035;-94
2023/07/29 14:45:52;;;;;;;2.25;2.05;;;;;;;38.51;29.09;100545.84;4693309;30;20131;-95
2023/07/29 14:48:23;;;;;;;2.17;1.92;;;;;;;35.80;30.46;100555.72;4770976;30;20070;-95
2023/07/29 14:50:58;;;;;;;3.13;1.80;;;;;;;35.79;31.68;100548.47;4753568;29;20039;-93
2023/07/29 14:54:03;;;;;;;1.90;1.80;;;;;;;34.74;33.99;100544.84;4764146;29;20049;-92
2023/07/29 14:56:54;;;;;;;1.80;1.70;;;;;;;34.09;36.98;100549.78;4759566;29;20065;-93
2023/07/29 15:00:10;;;;;;;;;;;;;;;;;;;;;
2023/07/29 15:02:38;;;;;;;3.03;1.55;;;;;;;33.98;33.88;100528.34;4795323;29;20038;-92
2023/07/29 15:05:17;;;;;;;1.83;1.70;;;;;;;33.94;33.25;100533.91;4780512;29;20039;-92
2023/07/29 15:08:02;;;;;;;2.00;1.80;;;;;;;34.73;33.55;100526.31;4792950;29;20041;-93
2023/07/29 15:10:40;;;;;;;1.77;1.65;;;;;;;32.90;34.59;100516.34;4792626;29;20127;-92
2023/07/29 15:13:15;;;;;;;2.47;1.58;;;;;;;32.90;36.15;100507.09;4793083;29;20039;-91
2023/07/29 15:15:51;;;;;;;2.67;1.90;;;;;;;32.40;35.88;100530.28;4778210;29;20093;-91
2023/07/29 15:18:29;;;;;;;2.15;1.85;;;;;;;30.90;39.53;100523.75;4791433;29;20035;-91
2023/07/29 15:21:40;;;;;;;;;;;;;;;;;;;;;
2023/07/29 15:35:04;;;;;;;3.53;1.63;;;;;;;25.52;58.59;100524.19;4643252;30;20517;-91
2023/07/29 15:37:53;;;;;;;3.00;1.50;;;;;;;24.39;64.76;100518.94;4656779;30;20060;-93
2023/07/29 15:40:19;;;;;;;3.35;1.50;;;;;;;24.46;65.69;100511.84;4765247;29;20035;-93
2023/07/29 15:42:47;;;;;;;1.88;1.27;;;;;;;24.80;66.72;100527.06;4791725;29;20497;-93
2023/07/29 15:45:13;;;;;;;3.60;1.40;;;;;;;24.99;64.23;100525.97;4792099;29;20064;-92
2023/07/29 15:47:39;;;;;;;3.20;1.58;;;;;;;24.78;63.59;100522.97;4791106;29;20065;-92
2023/07/29 15:50:31;;;;;;;;;;;;;;;;;;;;;
2023/07/29 15:53:00;;;;;;;2.90;1.50;;;;;;;25.80;59.97;100526.66;4810786;29;20046;-93
2023/07/29 15:55:34;;;;;;;2.03;1.60;;;;;;;25.79;58.47;100528.59;4795474;29;20110;-92
2023/07/29 15:57:59;;;;;;;3.78;1.50;;;;;;;26.94;55.69;100527.28;4795392;29;20417;-92
2023/07/29 16:00:28;;;;;;;4.10;1.37;;;;;;;28.81;51.12;100530.78;4795295;29;20034;-92
2023/07/29 16:03:04;;;;;;;;;;;;;;;;;;;;;
2023/07/29 16:05:32;;;;;;;1.60;1.50;;;;;;;31.48;43.25;100525.16;4811075;29;20464;-93
2023/07/29 16:08:00;;;;;;;2.03;1.80;;;;;;;31.58;42.51;100523.78;4794568;29;20130;-93
2023/07/29 16:10:37;;;;;;;2.00;1.80;;;;;;;31.78;42.39;100527.41;4779106;29;20043;-93